Bath, South Dakota
Current Conditions -  °F | °C
As of 3:53 AM on Monday 22 Dec 2014 (Local Time) from KABR Reporting Station
Haze Haze  
Wind Chill: 36°   Ceiling: 400
Heat Index: 36°   Visibility: 5mi
Dew Point: 34°   Wind: 3mph
Humidity: 93%   Direction: 180°S
Pressure: 29.43"   Gusts: NA
Location:  45.47°N, 98.33°W
Report Text: KABR 220953Z AUTO 18003KT 5SM BR OVC004 02/01 A2943 RMK AO2 SLP977 T00220011
Loading
Personal Weather Stations






























Interactive Weather Map New forecast layout! Learn more

10-Day Weather Forecast

Advertisements
Track Severe Weather on mobile